PGSN

Details ICAO PGSN (SPN)
Name Francisco C Ada Saipan Intl
Region USA (Guam, Northern Mariana Islands)
Timezone Pacific/Saipan (UTC+10.0)
Plans Departing 40
Arriving 51
Stats Elevation 215 ft / 66 m (AMSL)
Location 15.119001° 145.729355°
Runways 1
Magnetic Variation 0.481° E
Sunrise 2018-05-20 19:48:42 UTC / 2018-05-21 05:48:42 Local
Sunset 2018-05-21 08:41:27 UTC / 2018-05-21 18:41:27 Local
Advertisement - Login to hide

Runways

ID Width Length Bearing (true) Bearing (mag) Surface Threshold Offset Overrun Length
07 200 ft / 61 m 8,698 ft / 2,651 m 67.67° 67.19° Asphalt 0 ft / 0 m 197 ft / 60 m
25 200 ft / 61 m 8,698 ft / 2,651 m 247.68° 247.20° Asphalt 0 ft / 0 m 190 ft / 58 m

Approach Navaids

Runway Type Ident Frequency Range Bearing (true) Bearing (mag) Slope Elevation
07 Localiser IGSN 109.90 MHz 18 nm / 33 km 67.86° 67.37° - 215 ft / 66 m (AMSL)
07 Glidescope IGSN 109.90 MHz 10 nm / 19 km 67.68° 67.20° 3.00° 215 ft / 66 m (AMSL)
07 DME IGSN 109.90 MHz 18 nm / 33 km - - - 215 ft / 66 m (AMSL)

Map

Weather


0- 5 10 15 20 25 30 35+ Temperature / ° C

Clouds and Precipitation
Forecast for 2018-05-21 00:00 UTC. Updated 20 minutes ago

Ground ~20,000 ft ~40,000 ft Winds

METAR

PGSN 202254Z 10008KT 10SM SCT016 29/26 A2986 RMK AO2 SLP131 T02940261

TAF

TAF PGSN 201729Z 2018/2118 06007KT P6SM FEW018 SCT050= TAF PGUM 201729Z 2018/2124 VRB05KT P6SM VCSH FEW020 BKN050 FM202300 VRB06KT P6SM VCSH SCT020 SCT040

Frequencies

Recorded 127.20 MHz ATIS
Tower 125.70 MHz TWR
Ground 121.80 MHz GND
Warning: Do not use this data for real-world aviation or navigation. No guarantee of current accuracy is given.